Flight Track Log - Related Links

Times and Time Zones

All times are in EST time to prevent confusion due to time zone crossing. See the EJA922 flight status page for this flight to view local times or setup timezone preferences in your user account.

Time Position Orientation Groundspeed Altitude Reporting Facility
EST Latitude Longitude Course Direction KTS MPH feet Rate Location/Type
Fri 12:20:31 PM 30.1108 -97.6592 221° Southwest 209 241 6,600  Level Houston Center
Fri 12:21:33 PM 30.0908 -97.7422 254° West 258 297 10,000 2,613 Climbing Houston Center
Fri 12:22:35 PM 30.0731 -97.8333 257° West 282 325 12,000 968 Climbing Houston Center
Fri 12:23:37 PM 30.0453 -97.9569 255° West 372 428 12,000 288 Level Houston Center
Fri 12:24:40 PM 29.9642 -98.0594 228° Southwest 401 461 12,600 1,536 Climbing Houston Center
Fri 12:25:00 PM 30.0556 -97.9277 221° Southwest  Level FlightAware
Fri 12:25:42 PM 29.8914 -98.1511 228° Southwest 389 448 15,200  Level Houston Center
Fri 12:26:44 PM 29.8164 -98.2456 228° Southwest 373 429 18,000 2,613 Climbing Houston Center
Fri 12:27:46 PM 29.7492 -98.3306 228° Southwest 362 417 20,600 2,661 Climbing Houston Center
Fri 12:28:48 PM 29.6783 -98.4206 228° Southwest 354 407 23,500 2,516 Climbing Houston Center
Fri 12:29:50 PM 29.6036 -98.4825 216° Southwest 360 414 25,800 2,129 Climbing Houston Center
Fri 12:30:52 PM 29.4931 -98.5308 201° Southwest 384 442 27,900 1,968 Climbing Houston Center
Fri 12:31:55 PM 29.3872 -98.5781 201° Southwest 385 443 29,900 1,872 Climbing Houston Center
Fri 12:32:57 PM 29.2872 -98.6300 204° Southwest 393 452 31,800 1,790 Climbing Houston Center
Fri 12:33:59 PM 29.1758 -98.6875 204° Southwest 408 470 33,600 1,645 Climbing Houston Center
Fri 12:35:01 PM 29.0686 -98.7433 204° Southwest 421 484 35,200 1,742 Climbing Houston Center
Fri 12:36:03 PM 28.9594 -98.7992 204° Southwest 427 491 37,200 1,984 Climbing Houston Center
Fri 12:37:05 PM 28.8428 -98.8564 203° Southwest 424 488 39,300 1,355 Climbing Houston Center
Fri 12:38:07 PM 28.7350 -98.9114 204° Southwest 424 488 40,000 336 Climbing Houston Center
Fri 12:39:10 PM 28.6231 -98.9700 205° Southwest 450 518 40,000  Level Houston Center
Fri 12:40:12 PM 28.5050 -99.0289 204° Southwest 461 531 40,000  Level Houston Center
Fri 12:41:14 PM 28.3858 -99.0903 204° Southwest 470 541 40,000  Level Houston Center
Fri 12:42:16 PM 28.2422 -99.1625 204° Southwest 473 544 40,000  Level Houston Center
Fri 12:43:18 PM 28.1231 -99.2231 204° Southwest 472 543 40,000  Level Houston Center
Fri 12:44:20 PM 28.0050 -99.2828 204° Southwest 469 540 40,000  Level Houston Center
Fri 12:45:22 PM 27.8864 -99.3419 204° Southwest 469 540 40,000  Level Houston Center
Fri 12:46:25 PM 27.7664 -99.4025 204° Southwest 474 545 40,000  Level Houston Center
Fri 12:47:27 PM 27.6242 -99.4736 204° Southwest 471 542 40,000  Level Houston Center
Fri 12:48:29 PM 27.5047 -99.5322 204° Southwest 470 541 40,000  Level Houston Center
Fri 12:50:00 PM 27.3355 -99.6260 213° Southwest  Level FlightAware
Fri 12:57:00 PM 26.6173 -100.1462 213° Southwest  Level FlightAware
Fri 12:58:00 PM 26.5145 -100.2200 213° Southwest  Level FlightAware
Fri 12:59:00 PM 26.4117 -100.2936 213° Southwest  Level FlightAware
Fri 01:00:00 PM 26.3089 -100.3672 213° Southwest  Level FlightAware
Fri 01:01:00 PM 26.2060 -100.4406 213° Southwest  Level FlightAware
Fri 01:02:00 PM 26.1031 -100.5138 213° Southwest  Level FlightAware
Fri 01:03:00 PM 26.0002 -100.5869 213° Southwest  Level FlightAware
Fri 01:04:00 PM 25.8972 -100.6599 213° Southwest  Level FlightAware
Fri 01:05:00 PM 25.7942 -100.7328 212° Southwest  Level FlightAware
Fri 01:06:00 PM 25.6912 -100.8055 212° Southwest  Level FlightAware
Fri 01:07:00 PM 25.5881 -100.8782 212° Southwest  Level FlightAware
Fri 01:08:00 PM 25.5112 -100.9752 247° West  Level FlightAware
Fri 01:09:00 PM 25.4639 -101.0999 247° West  Level FlightAware
Fri 01:10:00 PM 25.4165 -101.2246 247° West  Level FlightAware
Fri 01:11:00 PM 25.3690 -101.3491 247° West  Level FlightAware
Fri 01:12:00 PM 25.3214 -101.4735 247° West  Level FlightAware
Fri 01:13:00 PM 25.2737 -101.5979 247° West  Level FlightAware
Fri 01:14:00 PM 25.2258 -101.7221 247° West  Level FlightAware
Fri 01:15:00 PM 25.1779 -101.8462 247° West  Level FlightAware
Fri 01:16:00 PM 25.1299 -101.9703 247° West  Level FlightAware
Fri 01:17:00 PM 25.0818 -102.0942 247° West  Level FlightAware
Fri 01:18:00 PM 25.0335 -102.2181 247° West  Level FlightAware
Fri 01:19:00 PM 24.9852 -102.3418 247° West  Level FlightAware
Fri 01:20:00 PM 24.9368 -102.4655 247° West  Level FlightAware
Fri 01:21:00 PM 24.8885 -102.5892 247° West  Level FlightAware
Fri 01:22:00 PM 24.8405 -102.7129 247° West  Level FlightAware
Fri 01:23:00 PM 24.7830 -102.8274 210° Southwest  Level FlightAware
Fri 01:24:00 PM 24.6771 -102.8944 210° Southwest  Level FlightAware
Fri 01:25:00 PM 24.5712 -102.9613 210° Southwest  Level FlightAware
Fri 01:26:00 PM 24.4651 -103.0277 209° Southwest  Level FlightAware
Fri 01:27:00 PM 24.3580 -103.0920 209° Southwest  Level FlightAware
Fri 01:28:00 PM 24.2508 -103.1563 209° Southwest  Level FlightAware
Fri 01:29:00 PM 24.1436 -103.2204 208° Southwest  Level FlightAware
Fri 01:30:00 PM 24.0353 -103.2822 208° Southwest  Level FlightAware
Fri 01:31:00 PM 23.9292 -103.3484 210° Southwest  Level FlightAware
Fri 01:32:00 PM 23.8227 -103.4138 209° Southwest  Level FlightAware
Fri 01:33:00 PM 23.7161 -103.4788 209° Southwest  Level FlightAware
Fri 01:34:00 PM 23.6094 -103.5437 209° Southwest  Level FlightAware
Fri 01:35:00 PM 23.5026 -103.6082 208° Southwest  Level FlightAware
Fri 01:36:00 PM 23.3948 -103.6709 208° Southwest  Level FlightAware
Fri 01:37:00 PM 23.2870 -103.7334 208° Southwest  Level FlightAware
Fri 01:38:00 PM 23.1792 -103.7959 208° Southwest  Level FlightAware
Fri 01:39:00 PM 23.0714 -103.8582 208° Southwest  Level FlightAware
Fri 01:40:00 PM 22.9636 -103.9204 208° Southwest  Level FlightAware
Fri 01:41:00 PM 22.8572 -103.9854 213° Southwest  Level FlightAware
Fri 01:42:00 PM 22.7544 -104.0567 207° Southwest  Level FlightAware
Fri 01:43:00 PM 22.6453 -104.1162 207° Southwest  Level FlightAware
Fri 01:44:00 PM 22.5384 -104.1799 212° Southwest  Level FlightAware
Fri 01:45:00 PM 22.4345 -104.2493 212° Southwest  Level FlightAware
Fri 01:46:00 PM 22.3241 -104.3015 207° Southwest  Level FlightAware
Fri 01:47:00 PM 22.2176 -104.3660 212° Southwest  Level FlightAware
Fri 01:48:00 PM 22.1084 -104.4250 207° Southwest  Level FlightAware
Fri 01:49:00 PM 21.9992 -104.4838 210° Southwest  Level FlightAware
Fri 01:50:00 PM 21.8931 -104.5492 210° Southwest  Level FlightAware
Fri 01:51:00 PM 21.7871 -104.6144 210° Southwest  Level FlightAware
Fri 01:52:00 PM 21.6814 -104.6801 208° Southwest  Level FlightAware
Fri 01:53:00 PM 21.5739 -104.7424 208° Southwest  Level FlightAware
Fri 01:54:00 PM 21.4663 -104.8046 208° Southwest  Level FlightAware
Fri 01:55:00 PM 21.3576 -104.8643 207° Southwest  Level FlightAware
Fri 01:56:00 PM 21.2492 -104.9245 207° Southwest  Level FlightAware
Fri 01:57:00 PM 21.1404 -104.9841 207° Southwest  Level FlightAware
Fri 01:58:00 PM 21.0316 -105.0435 207° Southwest  Level FlightAware
Fri 01:59:00 PM 20.9232 -105.1038 207° Southwest  Level FlightAware
Fri 02:00:00 PM 20.8164 -105.1668 205° Southwest  Level FlightAware
Fri 02:01:00 PM 20.7075 -105.2255 209° Southwest  Level FlightAware
Fri 02:02:00 PM 20.6801 -105.2542 209° Southwest  Level Estimated
Fri 02:03:00 PM 20.6801 -105.2542 209° Southwest  Level Estimated
Fri 02:04:00 PM 20.6801 -105.2542 209° Southwest  Level Estimated
Fri 02:05:00 PM 20.6801 -105.2542 209° Southwest  Level Estimated
Fri 02:06:00 PM 20.6801 -105.2542 209° Southwest  Level Estimated
Fri 02:07:00 PM 20.6801 -105.2542 209° Southwest  Level Estimated
Fri 02:08:00 PM 20.6801 -105.2542 209° Southwest  Level Estimated
Fri 02:09:00 PM 20.6801 -105.2542 209° Southwest  Level Estimated
Fri 02:10:00 PM 20.6801 -105.2542 209° Southwest  Level Estimated
Fri 02:11:00 PM 20.6801 -105.2542 209° Southwest  Level Estimated
Fri 02:12:00 PM 20.6801 -105.2542 209° Southwest  Level Estimated
Fri 02:13:00 PM 20.6801 -105.2542 209° Southwest  Level Estimated
Fri 02:14:00 PM 20.6801 -105.2542 209° Southwest  Level Estimated
Fri 02:15:00 PM 20.6801 -105.2542 209° Southwest  Level Estimated
Fri 02:16:00 PM 20.6801 -105.2542 209° Southwest  Level Estimated
Fri 02:17:00 PM 20.6801 -105.2542 209° Southwest  Level Estimated
Fri 02:18:00 PM 20.6801 -105.2542 209° Southwest  Level Estimated

Login

Don't have an account? Register now (free) for customized features, flight alerts, and more!